createdAt,value
2018-09-06T00:00:15.969Z,15.90
2018-09-06T00:02:45.253Z,13.70
2018-09-06T00:05:14.274Z,16.25
2018-09-06T00:07:55.561Z,12.35
2018-09-06T00:13:27.316Z,16.57
2018-09-06T00:21:29.946Z,15.10
2018-09-06T00:23:59.112Z,16.05
2018-09-06T00:26:27.762Z,13.88
2018-09-06T00:28:56.416Z,16.57
2018-09-06T00:31:25.388Z,13.78
2018-09-06T00:33:54.073Z,15.75
2018-09-06T00:36:22.691Z,17.35
2018-09-06T00:38:51.287Z,14.78
2018-09-06T00:41:19.982Z,16.95
2018-09-06T00:43:48.610Z,16.97
2018-09-06T00:46:18.079Z,15.78
2018-09-06T00:48:46.719Z,15.13
2018-09-06T00:51:15.322Z,16.60
2018-09-06T00:53:44.349Z,17.07
2018-09-06T00:56:13.576Z,15.25
2018-09-06T00:58:42.142Z,18.87
2018-09-06T01:01:10.821Z,17.60
2018-09-06T01:03:39.439Z,13.68
2018-09-06T01:06:10.204Z,17.92
2018-09-06T01:08:38.788Z,16.80
2018-09-06T01:11:08.178Z,14.15
2018-09-06T01:13:39.003Z,20.62
2018-09-06T01:16:07.697Z,21.23
2018-09-06T01:18:37.492Z,17.92
2018-09-06T01:21:08.134Z,18.85
2018-09-06T01:23:36.925Z,15.35
2018-09-06T01:26:09.814Z,15.20
2018-09-06T01:28:38.923Z,15.03
2018-09-06T01:31:08.385Z,14.98
2018-09-06T01:33:39.020Z,13.50
2018-09-06T01:36:14.152Z,14.45
2018-09-06T01:38:43.918Z,15.60
2018-09-06T01:41:13.437Z,17.42
2018-09-06T01:43:44.762Z,15.93
2018-09-06T01:46:13.767Z,18.00
2018-09-06T01:48:42.773Z,20.05
2018-09-06T01:51:11.895Z,17.87
2018-09-06T01:53:43.593Z,14.18
2018-09-06T01:56:12.889Z,15.30
2018-09-06T01:58:41.823Z,15.28
2018-09-06T02:01:11.083Z,15.93
2018-09-06T02:03:41.455Z,16.48
2018-09-06T02:06:11.838Z,14.73
2018-09-06T02:08:40.588Z,14.98
2018-09-06T02:11:09.130Z,16.15
2018-09-06T02:13:40.123Z,15.25
2018-09-06T02:16:09.402Z,20.72
2018-09-06T02:18:37.966Z,19.00
2018-09-06T02:21:06.909Z,14.98
2018-09-06T02:23:35.492Z,15.15
2018-09-06T02:26:06.503Z,15.58
2018-09-06T02:28:35.159Z,16.27
2018-09-06T02:31:04.451Z,19.45
2018-09-06T02:33:33.412Z,14.65
2018-09-06T02:36:02.646Z,16.65
2018-09-06T02:38:32.101Z,15.53
2018-09-06T02:41:00.789Z,14.87
2018-09-06T02:43:29.435Z,15.25
2018-09-06T02:45:59.499Z,19.82
2018-09-06T02:48:34.434Z,15.60
2018-09-06T02:51:08.397Z,17.20
2018-09-06T02:53:37.044Z,13.80
2018-09-06T02:56:07.445Z,15.30
2018-09-06T02:58:36.541Z,17.98
2018-09-06T03:01:05.159Z,18.23
2018-09-06T03:03:34.482Z,18.82
2018-09-06T03:06:04.268Z,17.07
2018-09-06T03:08:32.902Z,16.27
2018-09-06T03:11:07.083Z,18.25
2018-09-06T03:13:36.376Z,16.40
2018-09-06T03:16:05.814Z,16.10
2018-09-06T03:18:34.476Z,17.70
2018-09-06T03:21:03.469Z,15.72
2018-09-06T03:23:32.095Z,19.23
2018-09-06T03:26:00.715Z,19.05
2018-09-06T03:28:30.271Z,18.23
2018-09-06T03:30:58.950Z,16.48
2018-09-06T03:33:28.077Z,19.32
2018-09-06T03:35:57.061Z,15.95
2018-09-06T03:38:26.144Z,19.65
2018-09-06T03:40:54.795Z,18.12
2018-09-06T03:43:23.832Z,20.27
2018-09-06T03:45:53.175Z,16.93
2018-09-06T03:48:22.890Z,16.30
2018-09-06T03:50:51.612Z,20.25
2018-09-06T03:53:20.955Z,23.00
2018-09-06T03:55:50.107Z,15.95
2018-09-06T03:58:20.949Z,18.65
2018-09-06T04:00:50.476Z,18.77
2018-09-06T04:03:20.409Z,21.25
2018-09-06T04:05:49.441Z,17.67
2018-09-06T04:08:18.445Z,16.42
2018-09-06T04:10:47.172Z,17.55
2018-09-06T04:13:16.253Z,19.30
2018-09-06T04:15:45.133Z,19.45
2018-09-06T04:18:19.237Z,17.02
2018-09-06T04:20:49.559Z,18.82
2018-09-06T04:23:18.083Z,21.07
2018-09-06T04:25:50.229Z,17.02
2018-09-06T04:28:20.035Z,18.40
2018-09-06T04:31:18.887Z,19.67
2018-09-06T04:33:51.014Z,20.57
2018-09-06T04:36:20.355Z,17.02
2018-09-06T04:38:50.022Z,19.25
2018-09-06T04:41:18.522Z,18.32
2018-09-06T04:43:47.407Z,18.57
2018-09-06T04:46:16.036Z,16.90
2018-09-06T04:48:44.589Z,18.40
2018-09-06T04:51:14.451Z,22.02
2018-09-06T04:53:43.647Z,21.60
2018-09-06T04:56:12.135Z,19.02
2018-09-06T04:58:41.013Z,19.20
2018-09-06T05:01:10.410Z,18.77
2018-09-06T05:03:39.249Z,21.33
2018-09-06T05:06:08.065Z,18.82
2018-09-06T05:08:36.849Z,25.97
2018-09-06T05:11:05.690Z,25.80
2018-09-06T05:13:34.127Z,20.92
2018-09-06T05:16:02.629Z,18.87
2018-09-06T05:18:31.120Z,20.17
2018-09-06T05:20:59.592Z,18.82
2018-09-06T05:24:52.643Z,23.57
2018-09-06T05:27:21.107Z,17.05
2018-09-06T05:29:49.922Z,25.50
2018-09-06T05:32:20.149Z,19.75
2018-09-06T05:34:50.345Z,23.77
2018-09-06T05:37:18.860Z,19.67
2018-09-06T05:39:47.336Z,23.70
2018-09-06T05:45:18.782Z,20.10
2018-09-06T05:48:00.853Z,20.20
2018-09-06T05:50:31.979Z,24.27
2018-09-06T05:56:18.418Z,16.85
2018-09-06T05:58:47.159Z,21.35
2018-09-06T06:01:16.112Z,22.22
2018-09-06T06:03:45.989Z,20.62
2018-09-06T06:06:14.946Z,23.05
2018-09-06T06:08:49.086Z,19.70
2018-09-06T06:11:18.770Z,20.08
2018-09-06T06:13:48.382Z,19.62
2018-09-06T06:16:17.533Z,22.55
2018-09-06T06:18:46.372Z,20.20
2018-09-06T06:21:14.887Z,19.90
2018-09-06T06:23:43.745Z,18.45
2018-09-06T06:26:12.589Z,19.87
2018-09-06T06:28:41.425Z,19.50
2018-09-06T06:31:11.437Z,16.20
2018-09-06T06:33:40.949Z,18.55
2018-09-06T06:36:10.459Z,17.87
2018-09-06T06:38:39.615Z,25.35
2018-09-06T06:41:09.595Z,20.08
2018-09-06T06:43:38.169Z,18.45
2018-09-06T06:46:07.330Z,20.52
2018-09-06T06:48:36.263Z,17.82
2018-09-06T06:51:05.232Z,16.37
2018-09-06T06:53:34.069Z,15.28
2018-09-06T06:56:02.901Z,15.35
2018-09-06T06:58:31.825Z,20.08
2018-09-06T07:01:00.549Z,20.25
2018-09-06T07:03:29.209Z,15.50
2018-09-06T07:05:58.055Z,16.87
2018-09-06T07:08:26.894Z,16.40
2018-09-06T07:10:56.464Z,13.85
2018-09-06T07:13:25.287Z,21.75
2018-09-06T07:15:54.818Z,15.05
2018-09-06T07:18:24.054Z,16.97
2018-09-06T07:20:53.968Z,14.38
2018-09-06T07:23:22.658Z,18.95
2018-09-06T07:25:51.482Z,13.93
2018-09-06T07:28:20.661Z,16.62
2018-09-06T07:30:49.686Z,16.62
2018-09-06T07:33:18.826Z,15.28
2018-09-06T07:35:47.676Z,14.80
2018-09-06T07:38:16.473Z,14.10
2018-09-06T07:40:44.953Z,14.95
2018-09-06T07:43:13.775Z,15.38
2018-09-06T07:45:43.545Z,14.95
2018-09-06T07:48:12.096Z,15.10
2018-09-06T07:50:40.926Z,17.12
2018-09-06T07:53:09.388Z,17.40
2018-09-06T07:55:37.868Z,14.03
2018-09-06T07:58:06.336Z,13.60
2018-09-06T08:00:34.877Z,18.32
2018-09-06T08:03:03.686Z,15.48
2018-09-06T08:05:32.495Z,16.75
2018-09-06T08:08:00.976Z,12.13
2018-09-06T08:10:30.375Z,16.48
2018-09-06T08:12:59.205Z,15.53
2018-09-06T08:15:27.717Z,15.80
2018-09-06T08:17:56.185Z,17.30
2018-09-06T08:20:25.295Z,17.75
2018-09-06T08:22:54.151Z,20.68
2018-09-06T08:25:23.373Z,17.90
2018-09-06T08:27:52.324Z,13.78
2018-09-06T08:30:20.931Z,17.92
2018-09-06T08:32:49.810Z,12.63
2018-09-06T08:35:18.667Z,13.90
2018-09-06T08:37:47.194Z,16.37
2018-09-06T08:40:15.996Z,14.70
2018-09-06T08:42:45.143Z,11.97
2018-09-06T08:45:14.023Z,12.03
2018-09-06T08:47:42.987Z,15.03
2018-09-06T08:50:11.814Z,12.45
2018-09-06T08:52:40.304Z,11.73
2018-09-06T08:55:09.108Z,12.25
2018-09-06T08:57:37.946Z,11.50
2018-09-06T09:00:06.464Z,15.15
2018-09-06T09:02:34.955Z,13.03
2018-09-06T09:05:03.614Z,11.18
2018-09-06T09:07:33.017Z,12.33
2018-09-06T09:10:02.626Z,10.25
2018-09-06T09:12:31.159Z,9.75
2018-09-06T09:14:59.728Z,9.75
2018-09-06T09:17:28.568Z,12.57
2018-09-06T09:19:57.650Z,9.00
2018-09-06T09:22:26.828Z,10.93
2018-09-06T09:24:55.095Z,11.60
2018-09-06T09:27:23.324Z,12.83
2018-09-06T09:29:51.860Z,11.67
2018-09-06T09:32:20.390Z,11.13
2018-09-06T09:34:48.952Z,9.67
2018-09-06T09:37:17.144Z,9.07
2018-09-06T09:39:45.354Z,9.60
2018-09-06T09:42:13.901Z,16.60
2018-09-06T09:44:42.751Z,14.93
2018-09-06T09:49:39.033Z,9.33
2018-09-06T09:52:08.080Z,10.80
2018-09-06T09:54:36.301Z,14.33
2018-09-06T09:57:04.805Z,8.80
2018-09-06T09:59:33.438Z,11.17
2018-09-06T10:02:06.961Z,10.80
2018-09-06T10:04:44.130Z,9.97
2018-09-06T10:08:18.342Z,12.10
2018-09-06T10:10:47.693Z,8.93
2018-09-06T10:13:16.014Z,9.73
2018-09-06T10:15:44.921Z,9.50
2018-09-06T10:18:13.569Z,7.63
2018-09-06T10:20:42.254Z,9.40
2018-09-06T10:23:11.112Z,10.63
2018-09-06T10:25:39.293Z,8.20
2018-09-06T10:28:07.538Z,8.83
2018-09-06T10:30:36.210Z,10.37
2018-09-06T10:33:04.765Z,7.50
2018-09-06T10:35:33.607Z,11.73
2018-09-06T10:38:02.398Z,8.33
2018-09-06T10:40:31.822Z,9.30
2018-09-06T10:43:00.208Z,9.90
2018-09-06T10:45:28.411Z,10.03
2018-09-06T10:47:56.707Z,7.97
2018-09-06T10:50:25.065Z,8.50
2018-09-06T10:52:53.289Z,7.80
2018-09-06T10:55:21.843Z,8.20
2018-09-06T10:57:50.589Z,13.60
2018-09-06T11:00:19.233Z,9.67
2018-09-06T11:02:47.476Z,8.77
2018-09-06T11:05:15.693Z,6.87
2018-09-06T11:07:44.333Z,10.37
2018-09-06T11:10:13.537Z,12.27
2018-09-06T11:12:41.785Z,9.57
2018-09-06T11:15:10.734Z,11.30
2018-09-06T11:17:39.683Z,11.83
2018-09-06T11:20:08.201Z,7.40
2018-09-06T11:22:36.761Z,9.00
2018-09-06T11:25:05.137Z,7.90
2018-09-06T11:27:33.769Z,8.07
2018-09-06T11:30:02.126Z,7.43
2018-09-06T11:32:30.680Z,8.20
2018-09-06T11:34:58.901Z,9.23
2018-09-06T11:37:27.427Z,9.37
2018-09-06T11:39:56.092Z,15.43
2018-09-06T11:42:24.689Z,10.17
2018-09-06T11:44:52.981Z,12.53
2018-09-06T11:47:21.273Z,8.93
2018-09-06T11:49:49.580Z,7.00
2018-09-06T11:52:18.125Z,8.33
2018-09-06T11:54:46.695Z,8.67
2018-09-06T11:57:15.225Z,14.30
2018-09-06T11:59:43.762Z,9.63
2018-09-06T12:02:12.702Z,7.83
2018-09-06T12:04:41.377Z,12.30
2018-09-06T12:07:10.305Z,8.97
2018-09-06T12:09:38.694Z,11.73
2018-09-06T12:12:07.853Z,14.27
2018-09-06T12:14:37.753Z,9.53
2018-09-06T12:17:06.896Z,9.10
2018-09-06T12:19:35.540Z,9.60
2018-09-06T12:22:03.933Z,7.97
2018-09-06T12:24:32.537Z,7.90
2018-09-06T12:27:01.412Z,8.63
2018-09-06T12:29:29.652Z,11.10
2018-09-06T12:31:58.191Z,10.97
2018-09-06T12:34:26.866Z,9.50
2018-09-06T12:36:55.418Z,9.07
2018-09-06T12:39:26.906Z,8.90
2018-09-06T12:41:55.703Z,8.80
2018-09-06T12:44:25.180Z,8.17
2018-09-06T12:46:55.097Z,7.10
2018-09-06T12:49:24.053Z,9.93
2018-09-06T12:51:53.548Z,7.50
2018-09-06T12:54:23.045Z,8.03
2018-09-06T12:56:52.241Z,8.53
2018-09-06T12:59:22.172Z,8.33
2018-09-06T13:01:51.216Z,8.07
2018-09-06T13:04:20.332Z,9.50
2018-09-06T13:06:49.725Z,8.20
2018-09-06T13:09:18.331Z,10.20
2018-09-06T13:14:21.528Z,8.80
2018-09-06T13:16:50.049Z,7.93
2018-09-06T13:19:18.899Z,7.13
2018-09-06T13:21:49.201Z,7.90
2018-09-06T13:24:17.746Z,8.23
2018-09-06T13:26:47.465Z,8.40
2018-09-06T13:29:15.991Z,8.17
2018-09-06T13:31:44.751Z,8.77
2018-09-06T13:34:13.628Z,10.47
2018-09-06T13:36:42.769Z,10.83
2018-09-06T13:39:12.029Z,15.27
2018-09-06T13:41:40.266Z,8.60
2018-09-06T13:44:09.058Z,8.77
2018-09-06T13:46:38.579Z,10.70
2018-09-06T13:49:07.446Z,10.43
2018-09-06T13:51:37.808Z,12.20
2018-09-06T13:54:08.350Z,8.47
2018-09-06T13:56:38.653Z,11.23
2018-09-06T13:59:07.696Z,11.03
2018-09-06T14:01:37.341Z,10.00
2018-09-06T14:04:07.497Z,9.73
2018-09-06T14:06:35.709Z,8.93
2018-09-06T14:09:05.268Z,9.37
2018-09-06T14:11:33.798Z,11.03
2018-09-06T14:15:05.314Z,10.10
2018-09-06T14:17:33.583Z,16.73
2018-09-06T14:20:01.771Z,8.87
2018-09-06T14:22:30.040Z,9.10
2018-09-06T14:24:58.390Z,8.20
2018-09-06T14:27:28.010Z,9.33
2018-09-06T14:29:57.448Z,9.67
2018-09-06T14:32:26.073Z,9.37
2018-09-06T14:34:54.621Z,9.03
2018-09-06T14:37:22.844Z,9.80
2018-09-06T14:39:51.428Z,8.20
2018-09-06T14:42:20.952Z,9.10
2018-09-06T14:44:49.165Z,10.57
2018-09-06T14:47:17.418Z,9.63
2018-09-06T14:49:45.614Z,8.57
2018-09-06T14:52:14.613Z,9.10
2018-09-06T14:54:42.782Z,8.40
2018-09-06T14:57:11.289Z,8.60
2018-09-06T14:59:39.809Z,8.37
2018-09-06T15:02:08.001Z,12.80
2018-09-06T15:04:36.678Z,8.73
2018-09-06T15:07:05.547Z,8.13
2018-09-06T15:09:35.165Z,13.03
2018-09-06T15:12:03.385Z,10.90
2018-09-06T15:14:31.918Z,9.17
2018-09-06T15:17:00.150Z,10.80
2018-09-06T15:19:28.705Z,10.03
2018-09-06T15:21:57.254Z,8.93
2018-09-06T15:24:25.867Z,10.60
2018-09-06T15:26:54.701Z,10.30
2018-09-06T15:29:23.345Z,8.27
2018-09-06T15:31:51.515Z,12.43
2018-09-06T15:34:19.739Z,8.60
2018-09-06T15:36:47.953Z,8.30
2018-09-06T15:39:17.170Z,8.97
2018-09-06T15:41:45.709Z,8.63
2018-09-06T15:44:14.643Z,9.30
2018-09-06T15:46:43.956Z,9.53
2018-09-06T15:49:13.113Z,8.60
2018-09-06T15:51:42.006Z,8.23
2018-09-06T15:54:10.785Z,10.13
2018-09-06T15:56:39.174Z,9.50
2018-09-06T15:59:07.713Z,9.20
2018-09-06T16:01:35.919Z,9.40
2018-09-06T16:04:05.505Z,10.03
2018-09-06T16:06:34.082Z,11.60
2018-09-06T16:09:02.282Z,9.57
2018-09-06T16:11:30.477Z,9.30
2018-09-06T16:13:58.684Z,8.37
2018-09-06T16:16:27.215Z,14.53
2018-09-06T16:18:55.867Z,9.90
2018-09-06T16:21:24.183Z,12.93
2018-09-06T16:23:52.981Z,10.13
2018-09-06T16:26:21.999Z,10.20
2018-09-06T16:28:50.182Z,12.03
2018-09-06T16:31:19.686Z,14.37
2018-09-06T16:50:35.012Z,12.00
2018-09-06T16:53:03.256Z,12.10
2018-09-06T16:55:32.151Z,11.97
2018-09-06T17:00:46.954Z,9.53
2018-09-06T17:06:21.142Z,7.00
2018-09-06T17:15:15.494Z,7.50
2018-09-06T17:45:21.923Z,9.00
2018-09-06T17:47:50.511Z,8.77
2018-09-06T17:50:29.449Z,8.50
2018-09-06T17:53:00.018Z,8.50
2018-09-06T17:55:28.630Z,9.13
2018-09-06T17:58:02.048Z,10.40
2018-09-06T18:03:24.167Z,8.30
2018-09-06T18:05:52.504Z,10.00
2018-09-06T18:08:24.037Z,8.80
2018-09-06T18:10:52.290Z,9.67
2018-09-06T18:13:21.923Z,10.57
2018-09-06T18:15:52.278Z,10.60
2018-09-06T18:18:21.765Z,9.67
2018-09-06T18:20:50.290Z,11.93
2018-09-06T18:23:18.659Z,9.80
2018-09-06T18:25:48.848Z,12.70
2018-09-06T18:28:18.385Z,11.33
2018-09-06T18:30:47.094Z,8.27
2018-09-06T18:33:16.077Z,12.67
2018-09-06T18:35:44.516Z,9.40
2018-09-06T18:38:14.231Z,12.33
2018-09-06T18:40:44.354Z,9.70
2018-09-06T18:43:12.591Z,9.57
2018-09-06T18:45:44.467Z,11.60
2018-09-06T18:48:13.669Z,8.30
2018-09-06T18:50:46.058Z,8.43
2018-09-06T18:53:20.504Z,12.93
2018-09-06T18:55:49.312Z,11.85
2018-09-06T18:58:18.386Z,10.83
2018-09-06T19:00:48.071Z,10.90
2018-09-06T19:03:17.157Z,8.07
2018-09-06T19:05:45.551Z,12.80
2018-09-06T19:08:14.732Z,8.50
2018-09-06T19:10:44.525Z,10.80
2018-09-06T19:13:15.499Z,10.73
2018-09-06T19:15:44.381Z,12.27
2018-09-06T19:18:29.441Z,8.80
2018-09-06T19:20:58.500Z,11.20
2018-09-06T19:23:26.718Z,13.37
2018-09-06T19:25:55.293Z,9.70
2018-09-06T19:28:23.857Z,9.70
2018-09-06T19:30:52.418Z,16.10
2018-09-06T19:33:21.026Z,11.17
2018-09-06T19:35:49.908Z,13.63
2018-09-06T19:38:18.484Z,10.67
2018-09-06T19:40:48.965Z,12.78
2018-09-06T19:43:18.224Z,8.28
2018-09-06T19:45:46.789Z,10.73
2018-09-06T19:48:16.533Z,9.90
2018-09-06T19:50:45.361Z,10.82
2018-09-06T19:53:18.391Z,10.58
2018-09-06T19:55:47.049Z,8.67
2018-09-06T19:58:15.495Z,9.93
2018-09-06T20:00:43.951Z,10.90
2018-09-06T20:03:13.725Z,14.68
2018-09-06T20:05:42.533Z,11.20
2018-09-06T20:08:11.451Z,11.10
2018-09-06T20:10:40.525Z,10.00
2018-09-06T20:13:08.984Z,10.95
2018-09-06T20:15:37.810Z,12.20
2018-09-06T20:18:06.264Z,10.75
2018-09-06T20:20:35.302Z,10.55
2018-09-06T20:23:04.465Z,11.95
2018-09-06T20:25:32.985Z,12.28
2018-09-06T20:28:04.239Z,10.65
2018-09-06T20:38:33.476Z,12.35
2018-09-06T20:41:29.118Z,12.47
2018-09-06T20:44:14.883Z,14.13
2018-09-06T21:00:43.213Z,13.88
2018-09-06T21:03:12.215Z,14.30
2018-09-06T21:09:07.568Z,22.37
2018-09-06T21:11:37.142Z,15.85
2018-09-06T21:14:06.598Z,15.40
2018-09-06T21:16:36.069Z,16.35
2018-09-06T21:19:04.876Z,15.53
2018-09-06T21:21:33.341Z,16.77
2018-09-06T21:24:01.834Z,18.67
2018-09-06T21:26:30.673Z,22.27
2018-09-06T21:28:59.236Z,15.58
2018-09-06T21:31:28.707Z,19.07
2018-09-06T21:33:58.765Z,14.00
2018-09-06T21:36:27.547Z,14.85
2018-09-06T21:38:56.002Z,16.65
2018-09-06T21:41:24.478Z,15.45
2018-09-06T21:43:52.940Z,17.48
2018-09-06T21:46:22.061Z,13.70
2018-09-06T21:48:50.903Z,17.00
2018-09-06T21:51:20.407Z,18.07
2018-09-06T21:53:48.964Z,15.78
2018-09-06T21:56:17.441Z,14.65
2018-09-06T21:58:45.936Z,19.02
2018-09-06T22:01:16.205Z,14.13
2018-09-06T22:03:50.461Z,18.82
2018-09-06T22:06:19.251Z,14.05
2018-09-06T22:08:47.725Z,14.90
2018-09-06T22:11:17.102Z,16.97
2018-09-06T22:13:45.573Z,14.23
2018-09-06T22:16:14.057Z,16.73
2018-09-06T22:18:42.636Z,13.40
2018-09-06T22:21:11.436Z,14.73
2018-09-06T22:23:39.885Z,13.30
2018-09-06T22:26:08.701Z,13.98
2018-09-06T22:28:37.330Z,18.15
2018-09-06T22:31:06.200Z,14.40
2018-09-06T22:33:35.021Z,15.30
2018-09-06T22:36:03.873Z,16.10
2018-09-06T22:38:33.125Z,16.30
2018-09-06T22:41:02.989Z,15.08
2018-09-06T22:43:31.857Z,16.23
2018-09-06T22:46:01.154Z,17.30
2018-09-06T22:48:29.985Z,17.00
2018-09-06T22:50:58.802Z,13.65
2018-09-06T22:53:27.283Z,13.65
2018-09-06T22:55:56.074Z,12.18
2018-09-06T22:58:24.910Z,17.23
2018-09-06T23:00:53.398Z,12.82
2018-09-06T23:03:27.944Z,17.98
2018-09-06T23:05:56.440Z,12.18
2018-09-06T23:08:24.986Z,12.20
2018-09-06T23:10:53.504Z,12.73
2018-09-06T23:13:21.946Z,14.50
2018-09-06T23:15:50.789Z,12.78
2018-09-06T23:18:19.619Z,17.07
2018-09-06T23:20:48.102Z,11.43
2018-09-06T23:23:17.225Z,14.25
2018-09-06T23:25:45.776Z,15.03
2018-09-06T23:28:14.541Z,13.20
2018-09-06T23:30:44.014Z,14.85
2018-09-06T23:33:12.829Z,14.68
2018-09-06T23:35:44.193Z,11.30
2018-09-06T23:38:14.124Z,17.85
2018-09-06T23:40:48.241Z,16.35
2018-09-06T23:43:17.121Z,12.88
2018-09-06T23:45:46.012Z,15.80
2018-09-06T23:48:14.961Z,11.25
2018-09-06T23:50:44.686Z,12.82
2018-09-06T23:53:13.532Z,14.63
2018-09-06T23:55:43.738Z,12.30
2018-09-06T23:58:12.233Z,12.53
